createdAt,value
2022-08-02T00:01:03.190Z,100.00
2022-08-02T00:03:31.472Z,100.00
2022-08-02T00:06:01.293Z,100.00
2022-08-02T00:08:29.380Z,100.00
2022-08-02T00:10:57.406Z,100.00
2022-08-02T00:13:25.596Z,100.00
2022-08-02T00:15:53.701Z,100.00
2022-08-02T00:18:21.787Z,100.00
2022-08-02T00:20:50.176Z,100.00
2022-08-02T00:23:18.383Z,100.00
2022-08-02T00:25:55.203Z,100.00
2022-08-02T00:28:27.817Z,100.00
2022-08-02T00:30:58.068Z,100.00
2022-08-02T00:34:26.780Z,100.00
2022-08-02T00:36:15.353Z,100.00
2022-08-02T00:38:44.176Z,100.00
2022-08-02T00:41:18.058Z,100.00
2022-08-02T00:43:48.057Z,100.00
2022-08-02T00:46:17.485Z,100.00
2022-08-02T00:48:45.983Z,100.00
2022-08-02T00:51:15.388Z,100.00
2022-08-02T00:53:44.362Z,100.00
2022-08-02T00:56:12.343Z,100.00
2022-08-02T00:58:40.391Z,100.00
2022-08-02T01:01:08.526Z,100.00
2022-08-02T01:03:36.555Z,100.00
2022-08-02T01:06:12.077Z,100.00
2022-08-02T01:08:40.790Z,100.00
2022-08-02T01:11:08.862Z,100.00
2022-08-02T01:13:37.348Z,100.00
2022-08-02T01:16:12.503Z,100.00
2022-08-02T01:18:42.394Z,100.00
2022-08-02T01:21:29.139Z,100.00
2022-08-02T01:24:17.250Z,100.00
2022-08-02T01:27:05.661Z,100.00
2022-08-02T01:29:45.632Z,100.00
2022-08-02T01:32:23.589Z,100.00
2022-08-02T01:34:58.456Z,100.00
2022-08-02T01:37:32.475Z,100.00
2022-08-02T01:40:13.408Z,100.00
2022-08-02T01:42:47.353Z,100.00
2022-08-02T01:45:18.069Z,100.00
2022-08-02T01:47:48.146Z,100.00
2022-08-02T01:50:18.703Z,100.00
2022-08-02T01:52:53.155Z,100.00
2022-08-02T01:55:56.940Z,100.00
2022-08-02T01:58:26.986Z,100.00
2022-08-02T02:00:57.659Z,100.00
2022-08-02T02:03:27.372Z,100.00
2022-08-02T02:05:58.912Z,100.00
2022-08-02T02:08:36.489Z,100.00
2022-08-02T02:12:10.210Z,100.00
2022-08-02T02:13:53.517Z,100.00
2022-08-02T02:16:23.434Z,100.00
2022-08-02T02:18:53.075Z,100.00
2022-08-02T02:21:21.810Z,100.00
2022-08-02T02:23:50.784Z,100.00
2022-08-02T02:26:28.446Z,100.00
2022-08-02T02:29:02.196Z,100.00
2022-08-02T02:31:36.701Z,100.00
2022-08-02T02:34:10.639Z,100.00
2022-08-02T02:36:42.389Z,100.00
2022-08-02T02:39:13.923Z,100.00
2022-08-02T02:41:44.628Z,100.00
2022-08-02T02:44:16.659Z,100.00
2022-08-02T02:46:46.108Z,100.00
2022-08-02T02:49:16.611Z,100.00
2022-08-02T02:51:46.212Z,100.00
2022-08-02T02:54:30.294Z,100.00
2022-08-02T02:57:05.676Z,100.00
2022-08-02T02:59:36.025Z,100.00
2022-08-02T03:02:05.923Z,100.00
2022-08-02T03:04:56.944Z,100.00
2022-08-02T03:07:24.068Z,100.00
2022-08-02T03:09:54.000Z,100.00
2022-08-02T03:12:30.819Z,100.00
2022-08-02T03:15:02.367Z,100.00
2022-08-02T03:17:44.895Z,100.00
2022-08-02T03:20:20.517Z,100.00
2022-08-02T03:22:49.593Z,100.00
2022-08-02T03:25:18.809Z,100.00
2022-08-02T03:27:47.867Z,100.00
2022-08-02T03:30:15.935Z,100.00
2022-08-02T03:32:49.280Z,100.00
2022-08-02T03:35:23.848Z,100.00
2022-08-02T03:37:56.617Z,100.00
2022-08-02T03:40:25.989Z,100.00
2022-08-02T03:42:55.040Z,100.00
2022-08-02T03:45:24.737Z,100.00
2022-08-02T03:47:52.823Z,100.00
2022-08-02T03:50:23.092Z,100.00
2022-08-02T03:52:52.539Z,100.00
2022-08-02T03:55:20.684Z,100.00
2022-08-02T03:57:48.906Z,100.00
2022-08-02T04:00:19.992Z,100.00
2022-08-02T04:02:49.198Z,100.00
2022-08-02T04:05:18.410Z,100.00
2022-08-02T04:08:33.961Z,100.00
2022-08-02T04:10:56.330Z,100.00
2022-08-02T04:13:37.320Z,100.00
2022-08-02T04:16:12.649Z,100.00
2022-08-02T04:19:05.305Z,100.00
2022-08-02T04:21:49.896Z,100.00
2022-08-02T04:24:25.697Z,100.00
2022-08-02T04:26:58.108Z,100.00
2022-08-02T04:29:36.845Z,100.00
2022-08-02T04:32:06.290Z,100.00
2022-08-02T04:34:37.499Z,100.00
2022-08-02T04:37:06.503Z,100.00
2022-08-02T04:39:34.985Z,100.00
2022-08-02T04:42:05.586Z,100.00
2022-08-02T04:44:34.537Z,100.00
2022-08-02T04:47:06.913Z,100.00
2022-08-02T04:49:35.157Z,100.00
2022-08-02T04:52:04.907Z,100.00
2022-08-02T04:54:33.091Z,100.00
2022-08-02T04:57:01.484Z,100.00
2022-08-02T04:59:29.683Z,100.00
2022-08-02T05:01:57.867Z,100.00
2022-08-02T05:04:26.643Z,100.00
2022-08-02T05:06:54.806Z,100.00
2022-08-02T05:09:22.858Z,100.00
2022-08-02T05:11:55.058Z,100.00
2022-08-02T05:14:23.452Z,100.00
2022-08-02T05:16:51.602Z,100.00
2022-08-02T05:19:19.642Z,100.00
2022-08-02T05:21:49.085Z,100.00
2022-08-02T05:24:17.125Z,100.00
2022-08-02T05:26:45.315Z,100.00
2022-08-02T05:29:13.736Z,100.00
2022-08-02T05:31:41.896Z,100.00
2022-08-02T05:34:12.164Z,100.00
2022-08-02T05:36:42.173Z,100.00
2022-08-02T05:39:11.585Z,100.00
2022-08-02T05:41:46.824Z,100.00
2022-08-02T05:44:15.097Z,100.00
2022-08-02T05:46:43.260Z,100.00
2022-08-02T05:49:11.607Z,100.00
2022-08-02T05:51:52.703Z,100.00
2022-08-02T05:54:51.679Z,100.00
2022-08-02T05:58:05.416Z,100.00
2022-08-02T06:00:37.871Z,100.00
2022-08-02T06:03:26.356Z,100.00
2022-08-02T06:06:01.312Z,100.00
2022-08-02T06:08:39.393Z,100.00
2022-08-02T06:11:13.450Z,100.00
2022-08-02T06:13:43.491Z,100.00
2022-08-02T06:16:14.289Z,100.00
2022-08-02T06:18:44.367Z,100.00
2022-08-02T06:22:33.422Z,100.00
2022-08-02T06:24:06.547Z,100.00
2022-08-02T06:26:37.410Z,100.00
2022-08-02T06:29:16.700Z,100.00
2022-08-02T06:31:54.040Z,100.00
2022-08-02T06:34:24.275Z,100.00
2022-08-02T06:37:07.840Z,100.00
2022-08-02T06:39:51.390Z,100.00
2022-08-02T06:42:33.743Z,100.00
2022-08-02T06:45:05.200Z,100.00
2022-08-02T06:47:34.114Z,100.00
2022-08-02T06:50:06.811Z,100.00
2022-08-02T06:52:35.880Z,100.00
2022-08-02T06:55:06.601Z,100.00
2022-08-02T06:57:35.651Z,100.00
2022-08-02T07:00:09.129Z,100.00
2022-08-02T07:02:37.714Z,100.00
2022-08-02T07:05:06.828Z,100.00
2022-08-02T07:07:35.123Z,100.00
2022-08-02T07:10:04.530Z,100.00
2022-08-02T07:12:34.641Z,100.00
2022-08-02T07:15:06.649Z,100.00
2022-08-02T07:17:35.496Z,100.00
2022-08-02T07:20:04.870Z,100.00
2022-08-02T07:22:33.212Z,100.00
2022-08-02T07:25:02.386Z,100.00
2022-08-02T07:27:31.323Z,100.00
2022-08-02T07:30:00.468Z,100.00
2022-08-02T07:32:30.628Z,100.00
2022-08-02T07:35:00.300Z,100.00
2022-08-02T07:37:35.265Z,100.00
2022-08-02T07:40:24.347Z,100.00
2022-08-02T07:43:01.000Z,100.00
2022-08-02T07:45:36.071Z,100.00
2022-08-02T07:48:16.846Z,100.00
2022-08-02T07:50:46.804Z,100.00
2022-08-02T07:53:17.138Z,100.00
2022-08-02T07:55:47.228Z,100.00
2022-08-02T07:58:16.154Z,100.00
2022-08-02T08:00:46.773Z,100.00
2022-08-02T08:03:14.895Z,100.00
2022-08-02T08:05:43.088Z,100.00
2022-08-02T08:08:16.894Z,100.00
2022-08-02T08:10:47.087Z,100.00
2022-08-02T08:13:15.576Z,100.00
2022-08-02T08:15:52.070Z,100.00
2022-08-02T08:18:21.950Z,100.00
2022-08-02T08:20:50.517Z,100.00
2022-08-02T08:23:18.728Z,100.00
2022-08-02T08:25:48.481Z,100.00
2022-08-02T08:28:26.212Z,100.00
2022-08-02T08:30:56.777Z,100.00
2022-08-02T08:33:25.159Z,100.00
2022-08-02T08:35:54.100Z,100.00
2022-08-02T08:38:22.705Z,100.00
2022-08-02T08:40:53.240Z,100.00
2022-08-02T08:43:22.517Z,100.00
2022-08-02T08:45:55.906Z,100.00
2022-08-02T08:48:31.275Z,100.00
2022-08-02T08:51:10.645Z,100.00
2022-08-02T08:53:48.949Z,100.00
2022-08-02T08:56:17.857Z,100.00
2022-08-02T08:58:47.912Z,100.00
2022-08-02T09:01:17.240Z,100.00
2022-08-02T09:03:46.210Z,100.00
2022-08-02T09:06:14.882Z,100.00
2022-08-02T09:08:43.486Z,100.00
2022-08-02T09:11:16.970Z,100.00
2022-08-02T09:13:57.192Z,100.00
2022-08-02T09:16:34.976Z,100.00
2022-08-02T09:19:20.427Z,100.00
2022-08-02T09:22:12.022Z,100.00
2022-08-02T09:24:44.530Z,100.00
2022-08-02T09:27:15.183Z,100.00
2022-08-02T09:32:48.502Z,99.83
2022-08-02T09:36:06.363Z,99.33
2022-08-02T09:38:26.100Z,100.00
2022-08-02T09:40:55.323Z,100.00
2022-08-02T09:44:03.165Z,99.88
2022-08-02T09:46:34.363Z,98.22
2022-08-02T09:49:05.352Z,93.99
2022-08-02T09:51:48.710Z,100.00
2022-08-02T09:54:19.771Z,100.00
2022-08-02T09:56:54.302Z,96.55
2022-08-02T09:59:27.084Z,95.08
2022-08-02T10:02:01.245Z,95.11
2022-08-02T10:04:52.530Z,89.98
2022-08-02T10:07:23.246Z,85.94
2022-08-02T10:09:52.151Z,68.51
2022-08-02T10:12:22.462Z,84.64
2022-08-02T10:15:02.756Z,76.50
2022-08-02T10:17:32.834Z,69.18
2022-08-02T10:20:04.614Z,100.00
2022-08-02T10:22:35.766Z,91.01
2022-08-02T10:25:04.835Z,87.27
2022-08-02T10:28:02.908Z,77.69
2022-08-02T10:30:27.522Z,78.25
2022-08-02T10:33:00.850Z,73.53
2022-08-02T10:35:33.017Z,99.77
2022-08-02T10:38:04.570Z,82.59
2022-08-02T10:40:45.717Z,89.47
2022-08-02T10:43:34.319Z,61.80
2022-08-02T10:46:37.908Z,49.82
2022-08-02T10:52:16.061Z,58.28
2022-08-02T10:54:59.906Z,49.58
2022-08-02T10:57:36.705Z,48.87
2022-08-02T11:00:25.479Z,56.67
2022-08-02T11:02:56.723Z,50.12
2022-08-02T11:05:43.463Z,45.97
2022-08-02T11:08:20.228Z,46.91
2022-08-02T11:10:48.742Z,43.13
2022-08-02T11:13:21.753Z,45.14
2022-08-02T11:16:05.397Z,44.49
2022-08-02T11:18:58.392Z,55.71
2022-08-02T11:21:32.211Z,71.45
2022-08-02T11:24:37.216Z,80.31
2022-08-02T11:27:09.858Z,42.29
2022-08-02T11:29:50.013Z,40.49
2022-08-02T11:32:31.272Z,39.19
2022-08-02T11:35:03.993Z,40.05
2022-08-02T11:37:43.287Z,51.09
2022-08-02T11:40:19.802Z,51.00
2022-08-02T11:42:54.280Z,69.43
2022-08-02T11:45:29.265Z,42.08
2022-08-02T11:48:01.640Z,39.47
2022-08-02T11:50:30.844Z,49.28
2022-08-02T11:52:59.707Z,53.26
2022-08-02T11:55:30.541Z,41.26
2022-08-02T11:58:05.886Z,38.50
2022-08-02T12:00:35.937Z,36.68
2022-08-02T12:03:04.370Z,36.01
2022-08-02T12:08:26.018Z,37.41
2022-08-02T12:10:55.946Z,37.68
2022-08-02T12:13:24.205Z,37.76
2022-08-02T12:15:53.636Z,36.33
2022-08-02T12:18:45.445Z,41.71
2022-08-02T12:21:27.322Z,48.25
2022-08-02T12:23:59.540Z,34.10
2022-08-02T12:26:31.082Z,44.57
2022-08-02T12:28:59.958Z,47.59
2022-08-02T12:31:57.705Z,43.10
2022-08-02T12:34:31.915Z,51.15
2022-08-02T12:37:07.401Z,38.07
2022-08-02T12:39:46.962Z,41.86
2022-08-02T12:42:16.484Z,44.22
2022-08-02T12:44:56.292Z,33.94
2022-08-02T12:47:31.410Z,47.00
2022-08-02T12:50:27.470Z,51.83
2022-08-02T12:53:13.684Z,47.01
2022-08-02T12:56:00.786Z,48.75
2022-08-02T12:58:49.140Z,48.59
2022-08-02T13:01:27.533Z,38.93
2022-08-02T13:04:11.316Z,54.22
2022-08-02T13:06:44.955Z,35.92
2022-08-02T13:09:17.311Z,34.69
2022-08-02T13:11:49.378Z,50.75
2022-08-02T13:14:18.390Z,42.89
2022-08-02T13:16:55.837Z,39.04
2022-08-02T13:19:26.843Z,34.77
2022-08-02T13:22:02.326Z,36.43
2022-08-02T13:24:40.891Z,39.09
2022-08-02T13:27:26.423Z,38.52
2022-08-02T13:29:59.283Z,39.27
2022-08-02T13:32:29.058Z,36.89
2022-08-02T13:35:00.810Z,34.27
2022-08-02T13:37:29.563Z,35.79
2022-08-02T13:42:47.267Z,32.81
2022-08-02T13:45:15.718Z,32.75
2022-08-02T13:48:03.830Z,33.16
2022-08-02T13:50:33.989Z,32.55
2022-08-02T13:53:02.090Z,32.18
2022-08-02T13:55:31.429Z,32.41
2022-08-02T13:57:59.851Z,33.48
2022-08-02T14:00:35.387Z,30.93
2022-08-02T14:03:12.248Z,33.24
2022-08-02T14:05:47.646Z,32.98
2022-08-02T14:08:18.251Z,33.44
2022-08-02T14:10:48.391Z,32.00
2022-08-02T14:13:17.641Z,31.44
2022-08-02T14:15:46.506Z,31.47
2022-08-02T14:18:15.617Z,32.80
2022-08-02T14:20:45.394Z,33.44
2022-08-02T14:23:14.229Z,31.67
2022-08-02T14:25:43.203Z,31.97
2022-08-02T14:28:11.239Z,33.57
2022-08-02T14:30:39.637Z,32.37
2022-08-02T14:33:07.986Z,31.21
2022-08-02T14:35:37.446Z,31.88
2022-08-02T14:38:06.847Z,31.47
2022-08-02T14:40:35.357Z,31.40
2022-08-02T14:43:04.470Z,31.52
2022-08-02T14:45:41.106Z,31.20
2022-08-02T14:48:11.476Z,31.13
2022-08-02T14:50:41.533Z,30.19
2022-08-02T14:53:12.160Z,30.49
2022-08-02T14:55:42.830Z,30.37
2022-08-02T14:58:11.853Z,28.75
2022-08-02T15:00:41.188Z,28.48
2022-08-02T15:03:11.645Z,28.44
2022-08-02T15:05:42.712Z,28.12
2022-08-02T15:08:10.999Z,28.10
2022-08-02T15:10:39.356Z,27.84
2022-08-02T15:13:07.814Z,28.54
2022-08-02T15:15:43.279Z,28.55
2022-08-02T15:18:13.538Z,28.13
2022-08-02T15:20:57.537Z,28.08
2022-08-02T15:23:37.102Z,28.02
2022-08-02T15:26:07.396Z,28.33
2022-08-02T15:28:36.069Z,28.47
2022-08-02T15:31:04.590Z,28.13
2022-08-02T15:33:33.147Z,27.99
2022-08-02T15:36:01.401Z,28.65
2022-08-02T15:38:30.036Z,28.13
2022-08-02T15:40:58.302Z,27.95
2022-08-02T15:43:29.548Z,27.81
2022-08-02T15:45:57.932Z,27.90
2022-08-02T15:48:26.270Z,28.69
2022-08-02T15:50:54.610Z,28.65
2022-08-02T15:53:22.831Z,28.50
2022-08-02T15:55:53.191Z,28.57
2022-08-02T15:58:36.144Z,28.35
2022-08-02T16:01:12.894Z,28.70
2022-08-02T16:03:41.349Z,28.83
2022-08-02T16:06:13.697Z,28.81
2022-08-02T16:08:53.558Z,28.50
2022-08-02T16:11:23.319Z,28.52
2022-08-02T16:13:54.399Z,29.32
2022-08-02T16:16:30.844Z,29.76
2022-08-02T16:19:45.774Z,29.79
2022-08-02T16:21:50.953Z,29.56
2022-08-02T16:24:19.431Z,29.46
2022-08-02T16:26:47.910Z,30.14
2022-08-02T16:29:18.852Z,29.96
2022-08-02T16:31:48.259Z,30.20
2022-08-02T16:34:17.085Z,30.68
2022-08-02T16:36:45.528Z,31.34
2022-08-02T16:39:14.448Z,31.22
2022-08-02T16:41:52.192Z,31.41
2022-08-02T16:44:27.611Z,31.51
2022-08-02T16:47:00.988Z,31.47
2022-08-02T16:50:05.421Z,31.54
2022-08-02T16:52:22.426Z,31.62
2022-08-02T16:54:50.570Z,32.30
2022-08-02T16:57:19.589Z,32.85
2022-08-02T16:59:57.821Z,32.90
2022-08-02T17:02:28.006Z,34.14
2022-08-02T17:04:58.005Z,36.22
2022-08-02T17:08:15.008Z,37.98
2022-08-02T17:10:18.732Z,39.31
2022-08-02T17:12:51.249Z,40.31
2022-08-02T17:16:07.450Z,40.20
2022-08-02T17:18:09.368Z,41.70
2022-08-02T17:20:37.619Z,42.22
2022-08-02T17:23:05.900Z,43.79
2022-08-02T17:25:36.626Z,46.78
2022-08-02T17:28:10.092Z,49.70
2022-08-02T17:30:39.410Z,50.92
2022-08-02T17:33:08.503Z,55.62
2022-08-02T17:35:43.330Z,58.93
2022-08-02T17:38:26.207Z,60.94
2022-08-02T17:40:56.205Z,66.84
2022-08-02T17:43:25.912Z,67.17
2022-08-02T17:46:02.560Z,71.53
2022-08-02T17:48:55.203Z,70.66
2022-08-02T17:51:33.199Z,73.26
2022-08-02T17:54:18.996Z,77.26
2022-08-02T17:56:48.677Z,77.07
2022-08-02T17:59:21.369Z,77.82
2022-08-02T18:01:57.399Z,81.12
2022-08-02T18:04:30.474Z,85.90
2022-08-02T18:07:04.065Z,85.53
2022-08-02T18:09:32.935Z,85.41
2022-08-02T18:12:02.625Z,85.44
2022-08-02T18:14:30.889Z,87.67
2022-08-02T18:17:01.421Z,87.92
2022-08-02T18:19:33.098Z,86.92
2022-08-02T18:22:18.889Z,89.86
2022-08-02T18:24:53.257Z,92.89
2022-08-02T18:27:21.724Z,92.41
2022-08-02T18:30:04.199Z,94.83
2022-08-02T18:33:55.737Z,94.88
2022-08-02T18:35:23.608Z,97.30
2022-08-02T18:37:56.706Z,97.69
2022-08-02T18:40:25.703Z,97.28
2022-08-02T18:42:54.526Z,99.52
2022-08-02T18:45:22.904Z,100.00
2022-08-02T18:47:51.441Z,100.00
2022-08-02T18:50:20.307Z,100.00
2022-08-02T18:52:48.525Z,100.00
2022-08-02T18:58:19.530Z,100.00
2022-08-02T19:00:51.783Z,100.00
2022-08-02T19:03:20.502Z,100.00
2022-08-02T19:05:51.636Z,100.00
2022-08-02T19:08:20.070Z,100.00
2022-08-02T19:10:56.099Z,100.00
2022-08-02T19:13:25.406Z,100.00
2022-08-02T19:15:53.614Z,100.00
2022-08-02T19:18:26.849Z,100.00
2022-08-02T19:21:05.131Z,100.00
2022-08-02T19:23:34.348Z,100.00
2022-08-02T19:26:02.823Z,100.00
2022-08-02T19:28:32.637Z,100.00
2022-08-02T19:31:02.962Z,100.00
2022-08-02T19:34:04.711Z,100.00
2022-08-02T19:36:19.161Z,100.00
2022-08-02T19:38:49.148Z,100.00
2022-08-02T19:41:17.975Z,100.00
2022-08-02T19:44:26.159Z,100.00
2022-08-02T19:46:42.676Z,100.00
2022-08-02T19:49:19.929Z,100.00
2022-08-02T19:52:20.466Z,100.00
2022-08-02T19:54:55.967Z,100.00
2022-08-02T19:57:25.894Z,100.00
2022-08-02T19:59:56.840Z,100.00
2022-08-02T20:02:26.271Z,100.00
2022-08-02T20:04:54.490Z,100.00
2022-08-02T20:07:54.453Z,100.00
2022-08-02T20:10:12.624Z,100.00
2022-08-02T20:12:41.756Z,100.00
2022-08-02T20:15:14.855Z,100.00
2022-08-02T20:17:47.743Z,100.00
2022-08-02T20:20:18.139Z,100.00
2022-08-02T20:23:32.555Z,100.00
2022-08-02T20:25:55.239Z,100.00
2022-08-02T20:28:24.312Z,100.00
2022-08-02T20:30:52.444Z,100.00
2022-08-02T20:33:23.817Z,100.00
2022-08-02T20:38:41.757Z,100.00
2022-08-02T20:41:13.061Z,100.00
2022-08-02T20:43:50.398Z,100.00
2022-08-02T20:46:18.420Z,100.00
2022-08-02T20:48:47.478Z,100.00
2022-08-02T20:51:18.070Z,100.00
2022-08-02T20:54:00.841Z,100.00
2022-08-02T20:56:30.646Z,100.00
2022-08-02T20:59:04.034Z,100.00
2022-08-02T21:01:56.742Z,100.00
2022-08-02T21:04:26.496Z,100.00
2022-08-02T21:06:55.891Z,100.00
2022-08-02T21:09:52.879Z,100.00
2022-08-02T21:12:13.575Z,100.00
2022-08-02T21:14:41.617Z,100.00
2022-08-02T21:17:11.326Z,100.00
2022-08-02T21:19:46.149Z,100.00
2022-08-02T21:22:14.813Z,100.00
2022-08-02T21:24:43.540Z,100.00
2022-08-02T21:27:52.735Z,100.00
2022-08-02T21:30:05.588Z,100.00
2022-08-02T21:32:35.012Z,100.00
2022-08-02T21:35:03.895Z,100.00
2022-08-02T21:37:45.046Z,100.00
2022-08-02T21:40:13.687Z,100.00
2022-08-02T21:42:42.052Z,100.00
2022-08-02T21:45:17.255Z,100.00
2022-08-02T21:47:48.120Z,100.00
2022-08-02T21:50:17.493Z,100.00
2022-08-02T21:52:52.389Z,100.00
2022-08-02T21:55:24.367Z,100.00
2022-08-02T21:58:09.760Z,100.00
2022-08-02T22:00:38.329Z,100.00
2022-08-02T22:03:22.708Z,100.00
2022-08-02T22:05:51.486Z,100.00
2022-08-02T22:08:20.129Z,100.00
2022-08-02T22:11:03.631Z,100.00
2022-08-02T22:13:38.734Z,100.00
2022-08-02T22:16:15.314Z,100.00
2022-08-02T22:18:51.477Z,100.00
2022-08-02T22:21:23.126Z,100.00
2022-08-02T22:23:53.478Z,100.00
2022-08-02T22:26:21.983Z,100.00
2022-08-02T22:28:56.180Z,100.00
2022-08-02T22:31:40.831Z,100.00
2022-08-02T22:34:26.835Z,100.00
2022-08-02T22:37:00.307Z,100.00
2022-08-02T22:42:16.399Z,100.00
2022-08-02T22:44:44.683Z,100.00
2022-08-02T22:47:14.647Z,100.00
2022-08-02T22:49:51.885Z,100.00
2022-08-02T22:52:24.310Z,100.00
2022-08-02T22:54:52.398Z,100.00
2022-08-02T22:57:30.639Z,100.00
2022-08-02T22:58:46.032Z,100.00
2022-08-02T22:58:55.826Z,100.00
2022-08-02T22:59:09.692Z,100.00
2022-08-02T23:00:06.907Z,100.00
2022-08-02T23:02:35.421Z,100.00
2022-08-02T23:05:06.661Z,100.00
2022-08-02T23:07:36.182Z,100.00
2022-08-02T23:10:08.054Z,100.00
2022-08-02T23:12:36.158Z,100.00
2022-08-02T23:15:04.606Z,100.00
2022-08-02T23:17:53.046Z,100.00
2022-08-02T23:20:21.396Z,100.00
2022-08-02T23:22:49.494Z,100.00
2022-08-02T23:25:17.880Z,100.00
2022-08-02T23:27:50.643Z,100.00
2022-08-02T23:30:20.001Z,100.00
2022-08-02T23:32:48.126Z,100.00
2022-08-02T23:35:17.257Z,100.00
2022-08-02T23:37:59.719Z,100.00
2022-08-02T23:40:39.174Z,100.00
2022-08-02T23:43:14.482Z,100.00
2022-08-02T23:45:45.840Z,100.00
2022-08-02T23:48:14.015Z,100.00
2022-08-02T23:50:42.177Z,100.00
2022-08-02T23:53:10.224Z,100.00
2022-08-02T23:55:38.244Z,100.00
2022-08-02T23:58:06.292Z,100.00
